Time;durP1;ratioP1;P1;durP2;ratioP2;P2;SDS_P1;SDS_P2;PMS_P1;PMS_P2;Temp;Humidity;BMP_temperature;BMP_pressure;BME280_temperature;BME280_humidity;BME280_pressure;Samples;Min_cycle;Max_cycle;Signal;HPM_P1;HPM_P2
2022/03/20 03:46:16;;;;;;;25.00;12.32;;;3.70;52.40;;;;;;5449471;23;20141;-79
2022/03/20 03:48:42;;;;;;;23.80;11.55;;;3.70;52.50;;;;;;4852997;29;20037;-78
2022/03/20 03:51:07;;;;;;;28.00;12.13;;;3.70;52.10;;;;;;4870307;29;20048;-78
2022/03/20 03:53:33;;;;;;;22.00;11.32;;;3.70;51.80;;;;;;4873506;29;20100;-79
2022/03/20 03:55:59;;;;;;;29.48;13.10;;;3.70;52.10;;;;;;4870568;29;20033;-79
2022/03/20 03:58:24;;;;;;;21.90;12.30;;;3.60;51.90;;;;;;4858448;29;20039;-79
2022/03/20 04:00:50;;;;;;;21.85;12.15;;;3.60;51.70;;;;;;4833115;29;20053;-79
2022/03/20 04:03:16;;;;;;;25.75;12.10;;;3.60;51.90;;;;;;4861354;29;20229;-78
2022/03/20 04:05:41;;;;;;;30.10;13.00;;;3.60;51.90;;;;;;4855432;29;20055;-79
2022/03/20 04:08:09;;;;;;;22.35;12.23;;;3.50;51.80;;;;;;4870594;29;20041;-79
2022/03/20 04:10:34;;;;;;;24.98;12.80;;;3.50;51.70;;;;;;4873734;29;20051;-79
2022/03/20 04:13:00;;;;;;;22.20;12.13;;;3.50;51.70;;;;;;4842952;29;20037;-78
2022/03/20 04:15:26;;;;;;;26.85;12.98;;;3.50;52.00;;;;;;4843017;29;20048;-79
2022/03/20 04:17:53;;;;;;;22.75;11.60;;;3.50;52.20;;;;;;4873928;29;20571;-79
2022/03/20 04:20:19;;;;;;;27.50;13.27;;;3.40;52.30;;;;;;4843135;29;20033;-78
2022/03/20 04:25:31;;;;;;;27.83;11.73;;;3.30;52.20;;;;;;4857825;29;20044;-79
2022/03/20 04:27:57;;;;;;;18.63;10.50;;;3.30;52.00;;;;;;4874371;29;20096;-79
2022/03/20 04:30:28;;;;;;;23.70;11.60;;;3.30;52.00;;;;;;4873957;29;20037;-79
2022/03/20 04:32:55;;;;;;;23.08;11.80;;;3.30;51.90;;;;;;4874108;29;20029;-79
2022/03/20 04:35:23;;;;;;;20.90;11.27;;;3.30;51.70;;;;;;4858240;29;20039;-79
2022/03/20 04:37:51;;;;;;;21.92;11.48;;;3.30;51.60;;;;;;4858687;29;20344;-79
2022/03/20 04:40:17;;;;;;;22.77;10.93;;;3.30;51.10;;;;;;4858232;29;20037;-78
2022/03/20 04:42:42;;;;;;;27.20;12.65;;;3.30;51.20;;;;;;4878524;29;20048;-78
2022/03/20 04:45:10;;;;;;;19.58;11.57;;;3.30;50.90;;;;;;4855453;29;20029;-78
2022/03/20 04:58:36;;;;;;;25.85;11.63;;;3.20;51.00;;;;;;4874126;29;20329;-78
2022/03/20 05:01:01;;;;;;;19.35;11.25;;;3.20;51.20;;;;;;4858470;29;20117;-79
2022/03/20 05:03:29;;;;;;;23.85;12.07;;;3.20;51.20;;;;;;4857886;29;20044;-79
2022/03/20 05:05:56;;;;;;;24.77;11.45;;;3.20;51.20;;;;;;4857824;29;20040;-78
2022/03/20 05:08:22;;;;;;;20.70;11.45;;;3.20;51.00;;;;;;4873856;29;20037;-78
2022/03/20 05:13:32;;;;;;;23.33;11.27;;;3.20;51.20;;;;;;4859750;29;20048;-79
2022/03/20 05:15:58;;;;;;;23.40;11.68;;;3.20;51.70;;;;;;4855605;29;20057;-79
2022/03/20 05:18:24;;;;;;;21.90;12.02;;;3.10;51.80;;;;;;4859205;29;20033;-79
2022/03/20 05:20:51;;;;;;;29.83;12.33;;;3.10;52.10;;;;;;4848802;29;20048;-78
2022/03/20 05:23:17;;;;;;;23.23;12.73;;;3.10;52.00;;;;;;4880941;29;20041;-79
2022/03/20 05:25:43;;;;;;;25.23;12.38;;;3.10;52.30;;;;;;4876518;29;20403;-78
2022/03/20 05:28:09;;;;;;;20.52;11.85;;;3.10;52.30;;;;;;4859447;29;20325;-78
2022/03/20 05:30:34;;;;;;;20.17;11.43;;;3.10;52.40;;;;;;4841123;29;20285;-79
2022/03/20 05:33:00;;;;;;;36.58;12.27;;;3.10;52.30;;;;;;4871559;29;20274;-80
2022/03/20 05:35:26;;;;;;;28.27;12.57;;;3.10;52.50;;;;;;4877780;29;20060;-79
2022/03/20 05:37:54;;;;;;;20.15;11.45;;;3.20;52.10;;;;;;4858409;29;20029;-78
2022/03/20 05:40:20;;;;;;;24.52;11.07;;;3.30;52.10;;;;;;4886919;29;20106;-79
2022/03/20 05:42:46;;;;;;;25.13;12.23;;;3.30;51.90;;;;;;4889634;29;20043;-78
2022/03/20 05:45:12;;;;;;;23.35;10.95;;;3.30;51.90;;;;;;4871002;29;20325;-78
2022/03/20 05:47:40;;;;;;;21.20;11.70;;;3.40;51.70;;;;;;4857887;29;20152;-78
2022/03/20 05:50:07;;;;;;;26.60;12.50;;;3.50;51.30;;;;;;4872269;29;20218;-79
2022/03/20 05:52:34;;;;;;;23.13;11.48;;;3.60;51.50;;;;;;4872298;29;20495;-79
2022/03/20 05:55:01;;;;;;;28.50;11.85;;;3.60;50.90;;;;;;4870734;29;20296;-79
2022/03/20 06:00:24;;;;;;;22.95;11.85;;;3.70;50.80;;;;;;4872688;29;20037;-78
2022/03/20 06:02:50;;;;;;;21.85;11.57;;;3.80;50.50;;;;;;4874666;29;20036;-80
2022/03/20 06:05:16;;;;;;;23.48;11.35;;;3.90;50.60;;;;;;4860675;29;20047;-80
2022/03/20 06:07:44;;;;;;;22.83;11.30;;;4.00;50.50;;;;;;4875956;29;20037;-80
2022/03/20 06:10:11;;;;;;;28.38;11.50;;;4.00;50.80;;;;;;4860556;29;20073;-80
2022/03/20 06:12:38;;;;;;;24.23;12.88;;;4.00;50.20;;;;;;4872693;29;20041;-80
2022/03/20 06:15:08;;;;;;;24.20;11.50;;;4.10;50.30;;;;;;4873631;29;20120;-79
2022/03/20 06:17:39;;;;;;;21.73;11.50;;;4.20;50.50;;;;;;4855468;29;20041;-78
2022/03/20 06:20:09;;;;;;;29.92;11.93;;;4.20;50.40;;;;;;4882034;29;20036;-79
2022/03/20 06:22:36;;;;;;;28.25;12.60;;;4.20;50.20;;;;;;4875305;29;20025;-79
2022/03/20 06:25:09;;;;;;;27.17;11.80;;;4.30;50.30;;;;;;4844658;29;20362;-80
2022/03/20 06:27:52;;;;;;;25.88;12.60;;;4.30;50.00;;;;;;4875416;29;20040;-80
2022/03/20 06:30:19;;;;;;;26.70;11.68;;;4.40;50.00;;;;;;4874185;29;20351;-80
2022/03/20 06:32:47;;;;;;;24.00;12.35;;;4.40;50.20;;;;;;4869420;29;20034;-80
2022/03/20 06:35:17;;;;;;;24.55;11.90;;;4.50;50.00;;;;;;4859791;29;20033;-80
2022/03/20 06:37:46;;;;;;;25.00;11.80;;;4.50;49.80;;;;;;4875260;29;20033;-79
2022/03/20 06:40:13;;;;;;;22.33;11.93;;;4.60;50.00;;;;;;4857325;29;20323;-80
2022/03/20 06:42:40;;;;;;;20.30;10.90;;;4.60;49.40;;;;;;4891725;29;20292;-80
2022/03/20 06:45:08;;;;;;;22.97;11.97;;;4.60;49.70;;;;;;4875121;29;20063;-79
2022/03/20 06:47:35;;;;;;;22.48;11.68;;;4.70;49.20;;;;;;4858008;29;20052;-80
2022/03/20 06:50:03;;;;;;;34.40;11.48;;;4.80;49.00;;;;;;4869723;29;20479;-80
2022/03/20 06:52:29;;;;;;;36.88;12.02;;;4.80;49.40;;;;;;4877872;29;20033;-79
2022/03/20 06:55:03;;;;;;;24.95;12.65;;;4.80;48.80;;;;;;4865481;29;20045;-79
2022/03/20 06:57:31;;;;;;;26.77;12.60;;;4.90;49.40;;;;;;4895012;29;20033;-81
2022/03/20 07:00:03;;;;;;;24.30;11.80;;;5.00;49.80;;;;;;4873594;29;20025;-81
2022/03/20 07:02:37;;;;;;;32.65;13.10;;;5.00;49.10;;;;;;4871303;29;20025;-81
2022/03/20 07:05:03;;;;;;;22.58;11.93;;;5.20;49.30;;;;;;4873989;29;20033;-79
2022/03/20 07:07:29;;;;;;;20.60;11.65;;;5.30;48.80;;;;;;4842277;29;20073;-79
2022/03/20 07:09:55;;;;;;;23.92;11.57;;;5.40;48.30;;;;;;4826393;29;20333;-80
2022/03/20 07:12:21;;;;;;;26.95;11.18;;;5.50;48.70;;;;;;4850610;29;20033;-80
2022/03/20 07:14:47;;;;;;;21.92;11.45;;;5.50;47.40;;;;;;4884716;29;20040;-80
2022/03/20 07:17:16;;;;;;;18.57;10.87;;;5.60;47.80;;;;;;4866297;29;20044;-80
2022/03/20 07:19:43;;;;;;;21.23;11.25;;;5.60;47.50;;;;;;4857347;29;20324;-80
2022/03/20 07:22:11;;;;;;;24.92;11.82;;;5.70;48.20;;;;;;4855482;29;20090;-80
2022/03/20 07:24:39;;;;;;;21.73;11.70;;;5.90;47.80;;;;;;4857822;29;20234;-80
2022/03/20 07:29:50;;;;;;;25.33;12.02;;;6.10;47.20;;;;;;4838381;29;20349;-80
2022/03/20 07:32:17;;;;;;;30.77;12.57;;;6.20;46.60;;;;;;4853632;29;20049;-80
2022/03/20 07:34:46;;;;;;;24.53;11.30;;;6.30;46.90;;;;;;4837670;29;20042;-81
2022/03/20 07:37:16;;;;;;;32.40;12.68;;;6.30;46.30;;;;;;4868402;29;20829;-81
2022/03/20 07:39:51;;;;;;;24.77;12.40;;;6.40;46.30;;;;;;4851925;29;20349;-81
2022/03/20 07:42:18;;;;;;;23.92;11.40;;;6.50;46.80;;;;;;4823650;29;20290;-79
2022/03/20 07:44:48;;;;;;;26.88;12.05;;;6.60;45.90;;;;;;4855821;29;20030;-81
2022/03/20 07:47:19;;;;;;;23.45;12.00;;;6.80;46.10;;;;;;4822786;29;20122;-81
2022/03/20 07:49:46;;;;;;;25.60;12.05;;;6.90;46.00;;;;;;4828517;29;20090;-78
2022/03/20 07:52:12;;;;;;;22.30;11.32;;;7.10;45.00;;;;;;4866969;29;20274;-79
2022/03/20 07:54:38;;;;;;;23.80;12.23;;;7.10;44.80;;;;;;4822142;29;20042;-80
2022/03/20 07:57:05;;;;;;;19.75;11.82;;;7.10;44.70;;;;;;4822270;29;20102;-80
2022/03/20 07:59:31;;;;;;;20.25;11.68;;;7.30;45.40;;;;;;4859082;29;20039;-80
2022/03/20 08:01:57;;;;;;;22.83;11.95;;;7.40;45.00;;;;;;4873127;29;20056;-79
2022/03/20 08:04:24;;;;;;;23.75;11.95;;;7.50;44.80;;;;;;4872933;29;20240;-82
2022/03/20 08:06:50;;;;;;;21.17;12.32;;;7.50;43.80;;;;;;4827586;29;20256;-79
2022/03/20 08:09:17;;;;;;;24.00;11.70;;;7.50;44.50;;;;;;4872685;29;20036;-81
2022/03/20 08:11:43;;;;;;;23.38;11.77;;;7.70;44.30;;;;;;4841057;29;20053;-80
2022/03/20 08:14:09;;;;;;;22.40;11.82;;;7.80;44.10;;;;;;4865556;29;20032;-81
2022/03/20 08:16:39;;;;;;;20.70;11.80;;;7.80;43.60;;;;;;4856976;29;20033;-82
2022/03/20 08:19:08;;;;;;;23.35;10.90;;;7.80;43.40;;;;;;4860920;29;20037;-81
2022/03/20 08:21:34;;;;;;;23.20;11.35;;;7.90;44.30;;;;;;4872889;29;20210;-82
2022/03/20 08:24:02;;;;;;;22.13;12.20;;;8.00;43.80;;;;;;4859638;29;20064;-82
2022/03/20 08:26:33;;;;;;;23.30;11.90;;;8.10;43.70;;;;;;4861971;29;20096;-82
2022/03/20 08:29:03;;;;;;;24.73;11.60;;;8.20;44.20;;;;;;4870021;29;20037;-82
2022/03/20 08:31:29;;;;;;;24.45;12.75;;;8.30;43.70;;;;;;4871351;29;20045;-82
2022/03/20 08:33:59;;;;;;;21.38;11.98;;;8.40;43.50;;;;;;4870475;29;20363;-83
2022/03/20 08:36:24;;;;;;;20.23;12.40;;;8.30;42.60;;;;;;4856677;29;20033;-82
2022/03/20 08:38:51;;;;;;;23.77;12.02;;;8.40;43.20;;;;;;4871408;29;20044;-82
2022/03/20 08:41:17;;;;;;;22.63;13.20;;;8.60;43.20;;;;;;4871707;29;20029;-81
2022/03/20 08:43:42;;;;;;;22.85;12.35;;;8.70;43.00;;;;;;4840802;29;20033;-80
2022/03/20 08:46:08;;;;;;;20.83;11.20;;;8.90;42.70;;;;;;4871646;29;20214;-80
2022/03/20 08:48:34;;;;;;;23.35;12.02;;;8.90;42.80;;;;;;4855871;29;20333;-80
2022/03/20 08:51:00;;;;;;;24.63;12.05;;;8.90;42.90;;;;;;4856459;29;20116;-80
2022/03/20 08:53:26;;;;;;;22.85;12.50;;;9.00;43.40;;;;;;4871876;29;20060;-80
2022/03/20 08:55:52;;;;;;;18.53;11.33;;;9.00;42.30;;;;;;4882023;29;20040;-82
2022/03/20 08:58:19;;;;;;;23.35;13.02;;;9.10;43.00;;;;;;4842264;29;20105;-82
2022/03/20 09:00:45;;;;;;;22.40;12.85;;;9.20;42.00;;;;;;4846105;29;20025;-82
2022/03/20 09:03:13;;;;;;;23.58;12.82;;;9.20;42.90;;;;;;4862856;29;20041;-81
2022/03/20 09:05:39;;;;;;;25.98;13.30;;;9.30;42.40;;;;;;4857572;29;20048;-82
2022/03/20 09:08:05;;;;;;;25.35;12.93;;;9.40;42.60;;;;;;4872520;29;20036;-81
2022/03/20 09:10:32;;;;;;;22.83;13.23;;;9.60;43.00;;;;;;4870316;29;20091;-82
2022/03/20 09:13:00;;;;;;;25.63;12.83;;;9.80;42.20;;;;;;4857120;29;20041;-81
2022/03/20 09:15:29;;;;;;;29.20;12.73;;;9.90;41.80;;;;;;4856092;29;20057;-81
2022/03/20 09:20:44;;;;;;;24.20;12.98;;;10.00;41.00;;;;;;4887628;29;20033;-82
2022/03/20 09:23:12;;;;;;;;;;;10.10;41.50;;;;;;4872153;29;20029;-82
2022/03/20 09:25:39;;;;;;;23.10;12.90;;;10.20;41.40;;;;;;4871927;29;19935;-81
2022/03/20 09:28:07;;;;;;;24.35;13.25;;;10.40;41.60;;;;;;4867479;29;20124;-81
2022/03/20 09:30:35;;;;;;;30.58;13.40;;;10.50;40.70;;;;;;4866894;29;20045;-82
2022/03/20 09:33:02;;;;;;;;;;;10.70;39.90;;;;;;4852417;29;20057;-82
2022/03/20 09:35:28;;;;;;;22.42;13.35;;;10.80;39.60;;;;;;4867498;29;19915;-82
2022/03/20 09:37:54;;;;;;;22.45;12.57;;;11.00;39.80;;;;;;4867461;29;20068;-81
2022/03/20 09:40:22;;;;;;;21.08;12.82;;;11.10;39.50;;;;;;4821077;29;20313;-80
2022/03/20 09:42:48;;;;;;;22.23;12.85;;;11.10;39.30;;;;;;4836941;29;20110;-81
2022/03/20 09:45:17;;;;;;;30.20;14.15;;;11.00;39.70;;;;;;4851905;29;20116;-81
2022/03/20 09:47:43;;;;;;;22.42;14.10;;;11.00;39.50;;;;;;4840808;29;20050;-80
2022/03/20 09:50:10;;;;;;;30.27;15.77;;;11.10;39.50;;;;;;4856848;29;20066;-82
2022/03/20 09:52:36;;;;;;;;;;;11.10;39.40;;;;;;4871379;29;20051;-81
2022/03/20 09:55:04;;;;;;;24.52;13.05;;;10.80;39.00;;;;;;4851370;29;19979;-84
2022/03/20 09:57:31;;;;;;;20.38;12.00;;;10.70;39.30;;;;;;4849998;29;20040;-81
2022/03/20 10:00:06;;;;;;;26.20;13.50;;;10.70;38.70;;;;;;4882391;29;20125;-82
2022/03/20 10:02:32;;;;;;;23.23;14.07;;;10.80;39.80;;;;;;4868013;29;20425;-82
2022/03/20 10:05:00;;;;;;;24.35;13.70;;;10.80;39.60;;;;;;4870540;29;20116;-83
2022/03/20 10:07:31;;;;;;;19.95;12.45;;;10.80;39.10;;;;;;4855650;29;20029;-84
2022/03/20 10:10:14;;;;;;;27.80;13.35;;;10.80;39.40;;;;;;4868234;29;20089;-84
2022/03/20 10:12:49;;;;;;;23.92;13.10;;;10.90;39.60;;;;;;4873130;29;20072;-81
2022/03/20 10:15:34;;;;;;;27.10;13.00;;;10.80;38.60;;;;;;4870999;29;20047;-81
2022/03/20 10:18:17;;;;;;;27.48;12.77;;;10.80;39.70;;;;;;4857748;29;20202;-81
2022/03/20 10:20:57;;;;;;;23.50;12.77;;;10.90;39.40;;;;;;4886099;29;20033;-83
2022/03/20 10:23:41;;;;;;;27.95;12.63;;;10.90;39.30;;;;;;4870864;29;20033;-83
2022/03/20 10:26:10;;;;;;;24.42;12.30;;;11.00;39.20;;;;;;4868101;29;20333;-84
2022/03/20 10:28:41;;;;;;;21.23;12.07;;;10.90;38.90;;;;;;4866045;29;20041;-83
2022/03/20 10:31:10;;;;;;;25.17;12.63;;;10.90;38.60;;;;;;4866404;29;20052;-83
2022/03/20 10:33:40;;;;;;;24.45;13.88;;;11.00;38.80;;;;;;4870231;29;20025;-83
2022/03/20 10:36:14;;;;;;;20.60;12.57;;;10.90;38.90;;;;;;4855539;29;20120;-83
2022/03/20 10:38:43;;;;;;;25.52;13.65;;;10.80;39.60;;;;;;4868428;29;20063;-83
2022/03/20 10:41:18;;;;;;;20.38;13.23;;;11.00;39.70;;;;;;4849224;29;20030;-82
2022/03/20 10:43:45;;;;;;;29.08;13.02;;;11.10;39.10;;;;;;4860157;29;20234;-82
2022/03/20 10:46:22;;;;;;;33.00;13.27;;;11.20;39.30;;;;;;4874129;29;20057;-82
2022/03/20 10:48:52;;;;;;;26.33;13.38;;;11.30;39.10;;;;;;4871506;29;20072;-82
2022/03/20 10:51:37;;;;;;;31.60;14.07;;;11.50;39.10;;;;;;4873772;29;20048;-83
2022/03/20 10:54:05;;;;;;;24.25;13.38;;;11.40;38.50;;;;;;4870271;29;20108;-82
2022/03/20 10:56:32;;;;;;;24.83;14.18;;;11.30;38.40;;;;;;4855031;29;20029;-82
2022/03/20 10:58:58;;;;;;;28.13;14.00;;;11.20;38.10;;;;;;4859616;29;20278;-83
2022/03/20 11:01:35;;;;;;;18.77;12.02;;;11.10;38.90;;;;;;4873407;29;20044;-83
2022/03/20 11:04:01;;;;;;;;;;;11.10;39.00;;;;;;4859075;29;20241;-83
2022/03/20 11:06:27;;;;;;;23.67;12.30;;;11.00;39.20;;;;;;4871238;29;20111;-83
2022/03/20 11:08:54;;;;;;;30.17;13.27;;;11.00;39.40;;;;;;4853425;29;20290;-83
2022/03/20 11:11:20;;;;;;;26.83;13.55;;;11.10;39.70;;;;;;4871729;29;20101;-83
2022/03/20 11:13:46;;;;;;;27.15;12.55;;;11.20;39.50;;;;;;4858638;29;20222;-82
2022/03/20 11:16:13;;;;;;;23.85;13.82;;;11.30;39.20;;;;;;4875966;29;20142;-83
2022/03/20 11:18:43;;;;;;;24.20;14.80;;;11.20;39.10;;;;;;4873959;29;20025;-83
2022/03/20 11:21:10;;;;;;;24.42;13.30;;;11.20;39.10;;;;;;4889395;29;20040;-84
2022/03/20 11:23:36;;;;;;;27.50;14.02;;;11.20;39.60;;;;;;4870344;29;20033;-83
2022/03/20 11:26:03;;;;;;;23.35;12.80;;;11.20;38.50;;;;;;4858732;29;20052;-84
2022/03/20 11:28:36;;;;;;;19.55;11.52;;;11.20;38.90;;;;;;4862026;29;20116;-84
2022/03/20 11:31:03;;;;;;;23.08;12.57;;;11.30;38.80;;;;;;4862693;29;20103;-84
2022/03/20 11:33:29;;;;;;;22.07;12.50;;;11.40;38.70;;;;;;4876817;29;20028;-84
2022/03/20 11:35:54;;;;;;;21.88;13.50;;;11.40;38.80;;;;;;4851194;29;20056;-83
2022/03/20 11:38:25;;;;;;;24.30;13.25;;;11.50;38.90;;;;;;4844210;29;20037;-83
2022/03/20 11:41:11;;;;;;;20.38;13.13;;;11.80;39.20;;;;;;4862766;29;20029;-83
2022/03/20 11:43:40;;;;;;;23.02;12.93;;;12.20;38.40;;;;;;4876296;29;20061;-83
2022/03/20 11:46:17;;;;;;;22.48;12.63;;;12.40;38.50;;;;;;4881455;29;20056;-83
2022/03/20 11:48:45;;;;;;;21.92;12.70;;;12.50;38.10;;;;;;4880941;29;20235;-83
2022/03/20 11:51:14;;;;;;;28.92;13.85;;;12.60;37.80;;;;;;4874482;29;20041;-83
2022/03/20 11:53:40;;;;;;;23.83;12.48;;;12.60;37.20;;;;;;4869147;29;20029;-83
2022/03/20 11:56:07;;;;;;;21.87;12.60;;;12.50;37.30;;;;;;4887455;29;20056;-83
2022/03/20 11:58:34;;;;;;;23.40;13.03;;;12.50;36.60;;;;;;4864172;29;20057;-83
2022/03/20 12:01:06;;;;;;;24.45;12.63;;;12.50;37.90;;;;;;4874166;29;20040;-83
2022/03/20 12:03:50;;;;;;;25.67;12.90;;;12.80;38.10;;;;;;4880173;29;20032;-84
2022/03/20 12:06:30;;;;;;;26.73;12.80;;;13.00;37.10;;;;;;4899609;29;20056;-82
2022/03/20 12:09:06;;;;;;;22.00;12.05;;;13.20;37.10;;;;;;4879594;29;20294;-83
2022/03/20 12:11:42;;;;;;;23.30;12.18;;;13.60;36.40;;;;;;4897129;29;20416;-83
2022/03/20 12:14:33;;;;;;;17.92;12.63;;;13.60;36.20;;;;;;4889948;29;20033;-84
2022/03/20 12:17:03;;;;;;;20.23;11.88;;;13.70;36.70;;;;;;4872830;29;20081;-83
2022/03/20 12:19:48;;;;;;;21.67;13.18;;;13.70;36.10;;;;;;4874417;29;20225;-82
2022/03/20 12:22:20;;;;;;;24.70;13.93;;;13.70;36.20;;;;;;4858794;29;20029;-83
2022/03/20 12:24:54;;;;;;;21.88;11.60;;;13.80;36.30;;;;;;4897047;29;20205;-82
2022/03/20 12:27:22;;;;;;;22.23;12.70;;;13.80;36.30;;;;;;4875080;29;20037;-83
2022/03/20 12:29:54;;;;;;;17.92;11.73;;;13.90;36.30;;;;;;4889961;29;20228;-83
2022/03/20 12:32:21;;;;;;;17.65;11.23;;;13.90;36.10;;;;;;4876170;29;20033;-82
2022/03/20 12:34:57;;;;;;;26.35;11.05;;;14.00;35.00;;;;;;4875601;29;20041;-83
2022/03/20 12:37:33;;;;;;;14.98;9.48;;;14.10;35.40;;;;;;4883706;29;20108;-83
2022/03/20 12:40:26;;;;;;;15.95;9.38;;;14.50;36.10;;;;;;4866246;29;20037;-80
2022/03/20 12:42:55;;;;;;;19.52;11.00;;;14.60;33.70;;;;;;4872756;29;20044;-82
2022/03/20 12:45:21;;;;;;;19.05;9.43;;;14.50;33.00;;;;;;4858318;29;20332;-83
2022/03/20 12:48:02;;;;;;;16.98;9.73;;;14.40;33.00;;;;;;4856721;29;20037;-82
2022/03/20 12:50:40;;;;;;;20.45;9.85;;;14.30;33.00;;;;;;4868583;29;20045;-81
2022/03/20 12:53:17;;;;;;;17.92;10.02;;;14.10;32.70;;;;;;4853728;29;20111;-81
2022/03/20 12:55:47;;;;;;;31.35;14.93;;;13.90;33.40;;;;;;4891233;29;20033;-81
2022/03/20 12:58:15;;;;;;;16.48;10.90;;;14.00;33.10;;;;;;4871646;29;20040;-82
2022/03/20 13:00:43;;;;;;;21.67;12.00;;;14.10;33.70;;;;;;4856545;29;20096;-82
2022/03/20 13:03:12;;;;;;;24.90;13.07;;;14.20;32.80;;;;;;4852929;29;20086;-83
2022/03/20 13:05:57;;;;;;;18.02;9.30;;;14.00;32.10;;;;;;4871703;29;20309;-83
2022/03/20 13:08:46;;;;;;;21.23;13.48;;;13.90;31.90;;;;;;4871378;29;20048;-80
2022/03/20 13:14:04;;;;;;;18.30;9.48;;;13.80;32.20;;;;;;4875348;29;20060;-81
2022/03/20 13:16:32;;;;;;;24.70;11.30;;;13.70;31.60;;;;;;4858838;29;20252;-81
2022/03/20 13:18:58;;;;;;;17.05;10.48;;;13.70;32.40;;;;;;4851976;29;20738;-81
2022/03/20 13:21:24;;;;;;;17.13;10.75;;;13.90;32.20;;;;;;4831620;29;20255;-81
2022/03/20 13:23:52;;;;;;;20.10;11.10;;;14.00;32.00;;;;;;4856391;29;20037;-81
2022/03/20 13:26:19;;;;;;;20.70;10.75;;;13.90;31.20;;;;;;4852135;29;20127;-83
2022/03/20 13:28:46;;;;;;;;;;;13.90;31.70;;;;;;4852286;29;20068;-81
2022/03/20 13:31:16;;;;;;;14.98;9.02;;;13.90;31.40;;;;;;4851981;29;20323;-83
2022/03/20 13:33:52;;;;;;;15.38;9.88;;;14.10;31.50;;;;;;4851184;29;20552;-83
2022/03/20 13:36:19;;;;;;;13.57;9.82;;;14.10;31.80;;;;;;4867680;29;20045;-83
2022/03/20 13:38:47;;;;;;;22.90;10.57;;;14.00;31.60;;;;;;4852021;29;20030;-83
2022/03/20 13:41:21;;;;;;;15.85;10.20;;;14.10;31.60;;;;;;4852185;29;20073;-83
2022/03/20 13:43:47;;;;;;;14.32;9.90;;;14.10;31.10;;;;;;4852144;29;20060;-82
2022/03/20 13:46:17;;;;;;;28.25;9.70;;;14.20;30.70;;;;;;4852785;29;20064;-82
2022/03/20 13:48:45;;;;;;;17.02;9.27;;;14.10;30.80;;;;;;4862521;29;20054;-82
2022/03/20 13:51:11;;;;;;;18.35;8.98;;;14.20;31.30;;;;;;4871239;29;20033;-82
2022/03/20 13:53:37;;;;;;;15.13;9.83;;;14.40;31.20;;;;;;4855961;29;20036;-81
2022/03/20 13:56:18;;;;;;;22.90;10.23;;;14.60;30.40;;;;;;4870064;29;20045;-81
2022/03/20 13:59:19;;;;;;;16.50;10.55;;;14.60;30.00;;;;;;4869526;29;20115;-81
2022/03/20 14:01:51;;;;;;;17.05;12.02;;;14.20;30.60;;;;;;4845489;29;20037;-80
2022/03/20 14:04:18;;;;;;;14.27;10.23;;;14.20;31.30;;;;;;4851523;29;20057;-81
2022/03/20 14:06:46;;;;;;;18.33;12.25;;;14.20;31.00;;;;;;4848691;29;20037;-81
2022/03/20 14:09:13;;;;;;;18.75;9.25;;;14.10;31.00;;;;;;4850004;29;20112;-81
2022/03/20 14:11:39;;;;;;;16.13;9.18;;;14.00;30.50;;;;;;4849766;29;20034;-81
2022/03/20 14:14:06;;;;;;;13.53;9.47;;;13.80;31.40;;;;;;4851092;29;20125;-81
2022/03/20 14:16:34;;;;;;;20.58;9.93;;;13.80;31.50;;;;;;4832506;29;20369;-81
2022/03/20 14:19:04;;;;;;;;;;;13.80;31.30;;;;;;4838578;29;20105;-81
2022/03/20 14:21:34;;;;;;;15.68;9.32;;;13.60;31.40;;;;;;4867874;29;19923;-81
2022/03/20 14:24:07;;;;;;;14.65;9.30;;;13.50;31.50;;;;;;4822090;29;20045;-81
2022/03/20 14:26:45;;;;;;;16.02;9.60;;;13.40;31.50;;;;;;4854252;29;20033;-80
2022/03/20 14:39:26;;;;;;;15.45;9.30;;;13.20;31.80;;;;;;4838054;29;20046;-80
2022/03/20 14:41:16;;;;;;;15.68;9.95;;;13.10;32.30;;;;;;4831100;29;20057;-82
2022/03/20 14:43:42;;;;;;;16.23;10.18;;;13.00;32.40;;;;;;4820506;29;20146;-83
2022/03/20 14:46:08;;;;;;;19.77;10.75;;;12.90;32.30;;;;;;4815872;29;20046;-82
2022/03/20 14:48:34;;;;;;;21.77;10.35;;;12.70;32.30;;;;;;4810542;29;20114;-82
2022/03/20 14:51:03;;;;;;;17.13;9.68;;;12.50;31.90;;;;;;4820536;29;20049;-83
2022/03/20 14:53:32;;;;;;;15.60;9.35;;;12.40;32.70;;;;;;4821302;29;20078;-83
2022/03/20 14:55:59;;;;;;;15.25;9.55;;;12.40;32.60;;;;;;4830761;29;20116;-82
2022/03/20 14:58:25;;;;;;;15.77;10.52;;;12.30;32.60;;;;;;4800300;29;20109;-83
2022/03/20 15:00:56;;;;;;;17.27;9.02;;;12.20;32.40;;;;;;4821188;29;20038;-82
2022/03/20 15:03:22;;;;;;;17.80;9.82;;;12.10;32.50;;;;;;4836662;29;20225;-82
2022/03/20 15:05:48;;;;;;;16.02;9.80;;;12.10;32.80;;;;;;4827432;29;20102;-80
2022/03/20 15:13:42;;;;;;;16.85;9.35;;;11.90;33.70;;;;;;4827284;29;20037;-82
2022/03/20 15:16:08;;;;;;;22.42;10.05;;;11.80;33.50;;;;;;4851356;29;20052;-83
2022/03/20 15:18:34;;;;;;;12.65;8.57;;;11.70;33.20;;;;;;4861158;29;20100;-82
2022/03/20 15:21:00;;;;;;;16.05;9.10;;;11.70;33.60;;;;;;4827497;29;20104;-83
2022/03/20 15:23:26;;;;;;;19.40;9.73;;;11.60;33.40;;;;;;4834848;29;20033;-82
2022/03/20 15:25:51;;;;;;;15.90;9.95;;;11.70;33.90;;;;;;4830788;29;20065;-83
2022/03/20 15:28:17;;;;;;;15.02;9.05;;;11.70;33.80;;;;;;4873565;29;20052;-83
2022/03/20 15:30:43;;;;;;;19.75;9.73;;;11.60;33.50;;;;;;4874185;29;20033;-83
2022/03/20 15:33:09;;;;;;;13.52;9.90;;;11.60;33.40;;;;;;4878577;29;20210;-83
2022/03/20 15:35:35;;;;;;;17.05;9.02;;;11.50;33.40;;;;;;4857510;29;20067;-83
2022/03/20 15:38:01;;;;;;;16.63;9.70;;;11.50;33.80;;;;;;4832187;29;20060;-83
2022/03/20 15:40:27;;;;;;;17.25;9.27;;;11.50;34.30;;;;;;4857501;29;20206;-83
2022/03/20 15:42:53;;;;;;;15.52;9.45;;;11.60;33.70;;;;;;4872827;29;20032;-81
2022/03/20 15:45:19;;;;;;;15.85;9.20;;;11.60;34.10;;;;;;4859827;29;20032;-81
2022/03/20 15:47:45;;;;;;;13.70;9.32;;;11.70;34.10;;;;;;4871441;29;20033;-81
2022/03/20 15:50:11;;;;;;;13.43;8.67;;;11.60;33.20;;;;;;4890323;29;20407;-81
2022/03/20 15:52:37;;;;;;;28.20;9.05;;;11.60;33.60;;;;;;4870739;29;20288;-82
2022/03/20 15:55:03;;;;;;;14.50;10.00;;;11.60;33.20;;;;;;4859550;29;20041;-82
2022/03/20 15:57:29;;;;;;;19.40;9.43;;;11.50;33.20;;;;;;4864468;29;20028;-80
2022/03/20 15:59:57;;;;;;;18.23;9.65;;;11.50;33.30;;;;;;4870062;29;20044;-80
2022/03/20 16:02:23;;;;;;;13.55;9.25;;;11.50;33.60;;;;;;4872232;29;20077;-81
2022/03/20 16:04:48;;;;;;;15.48;8.68;;;11.40;33.60;;;;;;4826701;29;20025;-82
2022/03/20 16:07:14;;;;;;;11.60;8.10;;;11.30;33.40;;;;;;4843467;29;20052;-81
2022/03/20 16:09:40;;;;;;;13.77;9.07;;;11.20;33.40;;;;;;4864341;29;20115;-81
2022/03/20 16:12:06;;;;;;;17.83;8.43;;;11.20;33.80;;;;;;4842862;29;20071;-82
2022/03/20 16:14:32;;;;;;;17.80;8.50;;;11.10;33.90;;;;;;4873553;29;20048;-81
2022/03/20 16:16:58;;;;;;;17.63;8.48;;;11.00;33.70;;;;;;4874173;29;20025;-81
2022/03/20 16:19:24;;;;;;;11.82;7.40;;;10.90;33.40;;;;;;4876876;29;20029;-81
2022/03/20 16:21:50;;;;;;;16.42;9.05;;;10.80;33.50;;;;;;4841978;29;20041;-81
2022/03/20 16:29:44;;;;;;;13.63;7.50;;;10.60;33.40;;;;;;4861413;29;20297;-81
2022/03/20 16:32:13;;;;;;;12.93;7.45;;;10.50;33.70;;;;;;4871504;29;20041;-81
2022/03/20 16:34:44;;;;;;;12.82;7.40;;;10.40;33.40;;;;;;4867464;29;20036;-81
2022/03/20 16:37:12;;;;;;;13.27;8.25;;;10.30;33.50;;;;;;4860687;29;20251;-81
2022/03/20 16:39:38;;;;;;;14.05;7.65;;;10.30;34.00;;;;;;4841702;29;20107;-81
2022/03/20 16:42:05;;;;;;;23.17;8.07;;;10.20;33.90;;;;;;4861445;29;20025;-81
2022/03/20 16:44:33;;;;;;;13.52;7.18;;;10.10;33.90;;;;;;4877194;29;20120;-81
2022/03/20 16:47:00;;;;;;;15.45;8.25;;;10.10;33.80;;;;;;4873851;29;20049;-81
2022/03/20 16:49:27;;;;;;;17.77;9.70;;;10.00;34.30;;;;;;4856736;29;20033;-80
2022/03/20 16:51:53;;;;;;;16.55;8.10;;;9.90;34.50;;;;;;4856238;29;20383;-80
2022/03/20 16:54:19;;;;;;;15.13;7.93;;;9.90;34.90;;;;;;4865450;29;20328;-80
2022/03/20 16:56:45;;;;;;;11.15;7.50;;;9.80;34.60;;;;;;4855660;29;20057;-80
2022/03/20 16:59:12;;;;;;;13.48;8.00;;;9.70;34.70;;;;;;4876618;29;20037;-80
2022/03/20 17:01:38;;;;;;;12.90;7.75;;;9.70;35.00;;;;;;4877599;29;20032;-78
2022/03/20 17:04:04;;;;;;;12.60;7.80;;;9.60;34.90;;;;;;4879115;29;20048;-80
2022/03/20 17:06:29;;;;;;;16.35;8.40;;;9.50;34.80;;;;;;4872541;29;20029;-80
2022/03/20 17:08:55;;;;;;;14.50;8.38;;;9.50;35.20;;;;;;4879378;29;20065;-81
2022/03/20 17:11:22;;;;;;;13.90;8.02;;;9.50;35.40;;;;;;4873512;29;20235;-81
2022/03/20 17:13:49;;;;;;;13.20;8.60;;;9.40;35.40;;;;;;4874426;29;20336;-81
2022/03/20 17:16:16;;;;;;;17.70;8.50;;;9.40;35.60;;;;;;4868421;29;20116;-80